Aérodrome :
LOGIN :

S'inscrire | Disclaimer

   EN    FR    IT 

 










Légende :    VFR   VFR Marginal   IFR   IFR Intensif   IFR Très Intensif
Visi : 
Plafond : 
>= 8 km
>= 3000ft
5 à 8 km
1000 à 3000 ft
1500m à 5 km
500 à 1000 ft
800 à 1500m
200 à 500 ft
< 800m
< 200 ft
Symboles :   Orages  Brouillard  Fortes neiges  Fortes précipitations  Vent > 20 kt
SIGMETs :   Divers  Orages  Givrage  Turbulence  Onde Orograph.  Cendres Volcan.







- Altitude de l'aérodrome : 97 ft
- Code IATA : EBJ


EKEB - Esbjerg

DERNIER METAR :
  • 181620Z AUTO 23017KT 9999NDV BKN016/// 18/16 Q1017

METARs EXPIRÉS :
  • 181550Z AUTO 23018KT 9999NDV BKN018/// 18/15 Q1017
  • 181520Z AUTO 23017KT 9999NDV BKN020/// BKN050/// 19/15 Q1017
  • 181450Z AUTO 23019KT 9999NDV BKN018/// 19/15 Q1017
  • 181420Z AUTO 23018KT 9999NDV OVC019/// 19/15 Q1017
  • 181350Z AUTO 23021KT 9999NDV BKN019/// 19/15 Q1017

TAF TAF EKEB
Valide du 18 à 15h jusqu'au 18 à 22h UTC


181425Z 1815/1822 23020KT 9999 BKN018
TEMPO 1818/1822 -RA BKN012
Pas de NOTAMs connus pour ce terrain.



MET'MAP, la Météo Aéronautique d'un coup d'oeil ! - Copyright ORBIFLY Décembre 2007 - Disclaimer

ORBIFLY MET'MAP TEAM :

Programmation & Développement : Alexandra Zaïnal
Conception & Développement : Baudouin d'Aumeries
Co-Programmation & Développement : Marc-Olivier Méhu
Soutien technique & logistique : Manuel Goepfert

Contact : metmap@orbifly.com




SOURCES & CREDITS :

   NOAA